Aérodrome :
LOGIN :

S'inscrire | Disclaimer

   EN    FR    IT 

 










Légende :    VFR   VFR Marginal   IFR   IFR Intensif   IFR Très Intensif
Visi : 
Plafond : 
>= 8 km
>= 3000ft
5 à 8 km
1000 à 3000 ft
1500m à 5 km
500 à 1000 ft
800 à 1500m
200 à 500 ft
< 800m
< 200 ft
Symboles :   Orages  Brouillard  Fortes neiges  Fortes précipitations  Vent > 20 kt
SIGMETs :   Divers  Orages  Givrage  Turbulence  Onde Orograph.  Cendres Volcan.







- Altitude de l'aérodrome : 257 ft
- Code IATA : MAN
- Voir les cartes d'approche


EGCC - Manchester

DERNIER METAR :
  • 180820Z AUTO 23006KT 9999 OVC043 15/10 Q1014

METARs EXPIRÉS :
  • 180750Z 23007KT 9999 FEW016 BKN046 14/11 Q1014
  • 180720Z AUTO 22005KT 180V250 9999 OVC047 14/10 Q1014 NOSIG
  • 180650Z AUTO 20005KT 170V240 9999 BKN048 13/10 Q1014 NOSIG
  • 180620Z AUTO 19005KT 130V220 9999 FEW049 12/10 Q1014 NOSIG
  • 180550Z AUTO 18004KT 150V220 9999 NCD 12/10 Q1014 NOSIG
  • 180520Z AUTO VRB02KT 9999 NCD 11/10 Q1014 NOSIG

TAF TAF EGCC
Valide du 18 à 06h jusqu'au 19 à 12h UTC


180500Z 1806/1912 20008KT 9999 SCT035
PROB30 1806/1809 9000
PROB30
TEMPO 1814/1821 7000 SHRA
TEMPO 1821/1910 6000 RA BKN014
PROB40
TEMPO 1900/1912 BKN008
ATIS : +44 161 499 2324
Pas de NOTAMs connus pour ce terrain.
1 SIGMET publié pour la FIR London (EGTT) :
 
Orages noyés dans la masse
EGTT SIGMET 01 VALID 180732/181000 EGRR
EGTT LONDON FIR EMBD TS FCST WI N5053 W00010 - N5035 E00009 - N5000 W00102 - N5000 W00159 - N5053 W00010 TOP FL300 MOV NNE 20KT NC=



MET'MAP, la Météo Aéronautique d'un coup d'oeil ! - Copyright ORBIFLY Décembre 2007 - Disclaimer

ORBIFLY MET'MAP TEAM :

Programmation & Développement : Alexandra Zaïnal
Conception & Développement : Baudouin d'Aumeries
Co-Programmation & Développement : Marc-Olivier Méhu
Soutien technique & logistique : Manuel Goepfert

Contact : metmap@orbifly.com




SOURCES & CREDITS :

   NOAA